createdAt,value
2022-08-26T00:01:47.263Z,93.41
2022-08-26T00:04:15.328Z,93.64
2022-08-26T00:06:46.299Z,94.10
2022-08-26T00:09:16.025Z,93.95
2022-08-26T00:11:45.662Z,94.52
2022-08-26T00:14:14.876Z,94.47
2022-08-26T00:16:48.005Z,95.12
2022-08-26T00:19:20.558Z,94.67
2022-08-26T00:21:49.659Z,96.42
2022-08-26T00:24:18.701Z,95.61
2022-08-26T00:26:46.523Z,95.71
2022-08-26T00:29:14.855Z,95.70
2022-08-26T00:31:43.028Z,95.96
2022-08-26T00:34:13.927Z,96.26
2022-08-26T00:36:41.792Z,96.50
2022-08-26T00:39:11.114Z,96.39
2022-08-26T00:41:39.917Z,96.49
2022-08-26T00:44:08.002Z,96.83
2022-08-26T00:46:38.065Z,97.06
2022-08-26T00:49:11.953Z,96.87
2022-08-26T00:51:47.439Z,97.54
2022-08-26T00:54:15.256Z,97.37
2022-08-26T00:56:56.486Z,97.29
2022-08-26T00:59:24.249Z,98.75
2022-08-26T01:01:52.595Z,98.00
2022-08-26T01:04:22.236Z,98.42
2022-08-26T01:06:51.833Z,98.24
2022-08-26T01:09:20.160Z,98.67
2022-08-26T01:11:49.346Z,98.38
2022-08-26T01:14:17.105Z,98.98
2022-08-26T01:16:48.345Z,98.61
2022-08-26T01:19:41.417Z,98.80
2022-08-26T01:22:28.190Z,99.35
2022-08-26T01:24:57.127Z,99.29
2022-08-26T01:27:25.890Z,98.42
2022-08-26T01:29:53.980Z,98.28
2022-08-26T01:32:23.396Z,98.20
2022-08-26T01:34:51.250Z,98.34
2022-08-26T01:37:28.623Z,98.62
2022-08-26T01:39:57.344Z,99.92
2022-08-26T01:42:26.127Z,99.68
2022-08-26T01:44:57.294Z,100.00
2022-08-26T01:47:25.579Z,100.00
2022-08-26T01:49:54.547Z,100.00
2022-08-26T01:52:28.095Z,100.00
2022-08-26T01:54:56.644Z,100.00
2022-08-26T01:57:24.434Z,100.00
2022-08-26T01:59:52.249Z,100.00
2022-08-26T02:02:20.055Z,100.00
2022-08-26T02:04:50.268Z,100.00
2022-08-26T02:07:18.893Z,100.00
2022-08-26T02:09:49.312Z,100.00
2022-08-26T02:12:17.955Z,100.00
2022-08-26T02:14:51.458Z,100.00
2022-08-26T02:17:20.159Z,100.00
2022-08-26T02:19:49.818Z,100.00
2022-08-26T02:22:21.973Z,100.00
2022-08-26T02:24:50.790Z,100.00
2022-08-26T02:27:19.578Z,100.00
2022-08-26T02:29:55.991Z,100.00
2022-08-26T02:32:24.105Z,100.00
2022-08-26T02:34:52.040Z,100.00
2022-08-26T02:37:20.202Z,100.00
2022-08-26T02:39:50.873Z,100.00
2022-08-26T02:42:19.955Z,100.00
2022-08-26T02:44:47.675Z,100.00
2022-08-26T02:47:16.152Z,100.00
2022-08-26T02:49:44.451Z,100.00
2022-08-26T02:52:15.136Z,100.00
2022-08-26T02:54:47.840Z,100.00
2022-08-26T02:57:17.433Z,100.00
2022-08-26T02:59:45.225Z,100.00
2022-08-26T03:02:13.561Z,100.00
2022-08-26T03:04:41.366Z,100.00
2022-08-26T03:07:26.005Z,100.00
2022-08-26T03:09:54.163Z,100.00
2022-08-26T03:12:22.016Z,100.00
2022-08-26T03:14:49.774Z,100.00
2022-08-26T03:17:17.555Z,100.00
2022-08-26T03:19:45.566Z,100.00
2022-08-26T03:22:14.506Z,100.00
2022-08-26T03:24:44.400Z,100.00
2022-08-26T03:27:14.519Z,100.00
2022-08-26T03:30:01.156Z,100.00
2022-08-26T03:32:29.259Z,100.00
2022-08-26T03:34:58.669Z,100.00
2022-08-26T03:37:26.525Z,100.00
2022-08-26T03:39:55.352Z,100.00
2022-08-26T03:42:23.275Z,100.00
2022-08-26T03:44:51.142Z,100.00
2022-08-26T03:47:19.103Z,100.00
2022-08-26T03:49:46.943Z,100.00
2022-08-26T03:52:14.982Z,100.00
2022-08-26T03:54:43.475Z,100.00
2022-08-26T03:57:11.380Z,100.00
2022-08-26T03:59:39.102Z,100.00
2022-08-26T04:02:11.706Z,100.00
2022-08-26T04:04:39.712Z,100.00
2022-08-26T04:07:07.965Z,100.00
2022-08-26T04:09:35.925Z,100.00
2022-08-26T04:12:05.023Z,100.00
2022-08-26T04:14:33.405Z,100.00
2022-08-26T04:17:01.196Z,100.00
2022-08-26T04:19:28.983Z,100.00
2022-08-26T04:21:56.830Z,100.00
2022-08-26T04:24:25.807Z,100.00
2022-08-26T04:26:53.655Z,100.00
2022-08-26T04:29:25.082Z,100.00
2022-08-26T04:31:56.049Z,100.00
2022-08-26T04:34:28.702Z,100.00
2022-08-26T04:36:57.218Z,100.00
2022-08-26T04:39:25.426Z,100.00
2022-08-26T04:41:58.442Z,100.00
2022-08-26T04:44:28.558Z,100.00
2022-08-26T04:46:56.428Z,100.00
2022-08-26T04:49:24.277Z,100.00
2022-08-26T04:51:54.144Z,100.00
2022-08-26T04:54:22.764Z,100.00
2022-08-26T04:56:51.837Z,100.00
2022-08-26T04:59:19.784Z,100.00
2022-08-26T05:01:49.910Z,100.00
2022-08-26T05:04:18.767Z,100.00
2022-08-26T05:06:47.530Z,100.00
2022-08-26T05:09:15.986Z,100.00
2022-08-26T05:11:43.783Z,100.00
2022-08-26T05:14:16.568Z,100.00
2022-08-26T05:16:44.372Z,100.00
2022-08-26T05:19:15.603Z,100.00
2022-08-26T05:21:47.160Z,100.00
2022-08-26T05:24:15.134Z,100.00
2022-08-26T05:26:44.443Z,100.00
2022-08-26T05:29:12.942Z,100.00
2022-08-26T05:31:40.718Z,100.00
2022-08-26T05:34:08.676Z,100.00
2022-08-26T05:36:37.097Z,100.00
2022-08-26T05:39:06.361Z,100.00
2022-08-26T05:41:36.847Z,100.00
2022-08-26T05:44:09.373Z,100.00
2022-08-26T05:46:37.714Z,100.00
2022-08-26T05:49:06.514Z,100.00
2022-08-26T05:51:41.225Z,100.00
2022-08-26T05:54:10.315Z,100.00
2022-08-26T05:56:38.959Z,100.00
2022-08-26T05:59:14.129Z,100.00
2022-08-26T06:01:43.016Z,100.00
2022-08-26T06:04:11.347Z,100.00
2022-08-26T06:06:43.079Z,100.00
2022-08-26T06:09:12.984Z,100.00
2022-08-26T06:11:40.817Z,100.00
2022-08-26T06:14:10.858Z,100.00
2022-08-26T06:16:41.146Z,100.00
2022-08-26T06:19:10.397Z,100.00
2022-08-26T06:21:40.477Z,100.00
2022-08-26T06:24:30.363Z,100.00
2022-08-26T06:27:03.644Z,100.00
2022-08-26T06:29:34.211Z,100.00
2022-08-26T06:32:02.591Z,100.00
2022-08-26T06:34:35.854Z,100.00
2022-08-26T06:37:03.939Z,100.00
2022-08-26T06:39:34.224Z,100.00
2022-08-26T06:42:02.677Z,100.00
2022-08-26T06:44:30.840Z,100.00
2022-08-26T06:47:00.319Z,100.00
2022-08-26T06:49:28.408Z,100.00
2022-08-26T06:51:59.194Z,100.00
2022-08-26T06:54:32.687Z,100.00
2022-08-26T06:57:00.415Z,100.00
2022-08-26T06:59:28.190Z,100.00
2022-08-26T07:01:56.321Z,100.00
2022-08-26T07:04:27.790Z,100.00
2022-08-26T07:06:56.009Z,100.00
2022-08-26T07:09:25.033Z,100.00
2022-08-26T07:11:53.203Z,100.00
2022-08-26T07:14:21.929Z,100.00
2022-08-26T07:16:52.883Z,100.00
2022-08-26T07:19:30.482Z,100.00
2022-08-26T07:22:03.530Z,100.00
2022-08-26T07:24:35.414Z,100.00
2022-08-26T07:27:04.849Z,100.00
2022-08-26T07:29:34.165Z,100.00
2022-08-26T07:32:02.233Z,100.00
2022-08-26T07:34:30.766Z,100.00
2022-08-26T07:36:59.029Z,99.76
2022-08-26T07:39:27.574Z,98.74
2022-08-26T07:41:55.404Z,99.11
2022-08-26T07:44:43.190Z,98.90
2022-08-26T07:47:25.212Z,97.42
2022-08-26T07:49:57.784Z,97.89
2022-08-26T07:52:27.481Z,97.50
2022-08-26T07:54:56.829Z,95.84
2022-08-26T07:57:25.077Z,94.49
2022-08-26T07:59:54.076Z,93.83
2022-08-26T08:02:23.111Z,93.03
2022-08-26T08:04:51.081Z,92.50
2022-08-26T08:07:19.463Z,90.82
2022-08-26T08:09:51.825Z,89.36
2022-08-26T08:12:20.289Z,86.31
2022-08-26T08:14:48.330Z,84.89
2022-08-26T08:17:16.303Z,84.88
2022-08-26T08:19:44.209Z,83.91
2022-08-26T08:22:17.758Z,82.63
2022-08-26T08:24:49.864Z,80.72
2022-08-26T08:27:22.822Z,80.68
2022-08-26T08:29:51.795Z,81.31
2022-08-26T08:32:19.982Z,81.74
2022-08-26T08:34:47.813Z,79.90
2022-08-26T08:37:15.604Z,78.99
2022-08-26T08:39:43.996Z,78.97
2022-08-26T08:42:42.021Z,78.00
2022-08-26T08:45:15.058Z,77.79
2022-08-26T08:47:59.722Z,77.60
2022-08-26T08:50:38.436Z,75.47
2022-08-26T08:53:24.309Z,76.38
2022-08-26T08:56:10.229Z,75.54
2022-08-26T08:58:53.053Z,74.64
2022-08-26T09:01:52.440Z,73.99
2022-08-26T09:04:33.857Z,74.25
2022-08-26T09:07:02.649Z,74.80
2022-08-26T09:10:15.138Z,74.11
2022-08-26T09:12:45.436Z,72.13
2022-08-26T09:15:33.179Z,73.89
2022-08-26T09:18:19.061Z,71.28
2022-08-26T09:21:01.122Z,72.25
2022-08-26T09:23:29.267Z,72.73
2022-08-26T09:26:05.159Z,73.22
2022-08-26T09:28:32.974Z,74.11
2022-08-26T09:31:07.987Z,72.85
2022-08-26T09:33:39.007Z,72.61
2022-08-26T09:36:24.826Z,72.98
2022-08-26T09:38:53.413Z,72.68
2022-08-26T09:41:32.801Z,73.03
2022-08-26T09:44:14.526Z,73.42
2022-08-26T09:46:53.383Z,71.09
2022-08-26T09:49:35.714Z,71.32
2022-08-26T09:52:33.544Z,70.17
2022-08-26T09:55:07.417Z,67.84
2022-08-26T09:57:36.744Z,70.65
2022-08-26T10:00:34.208Z,69.59
2022-08-26T10:03:25.395Z,68.07
2022-08-26T10:06:21.175Z,68.43
2022-08-26T10:08:54.249Z,65.48
2022-08-26T10:11:33.326Z,67.19
2022-08-26T10:14:47.834Z,66.68
2022-08-26T10:17:23.121Z,66.06
2022-08-26T10:20:09.809Z,66.44
2022-08-26T10:23:02.485Z,66.10
2022-08-26T10:25:38.463Z,70.55
2022-08-26T10:28:13.329Z,67.06
2022-08-26T10:30:52.988Z,66.29
2022-08-26T10:33:20.855Z,64.73
2022-08-26T10:35:53.960Z,65.21
2022-08-26T10:38:28.694Z,64.00
2022-08-26T10:41:10.417Z,62.87
2022-08-26T10:44:08.756Z,62.39
2022-08-26T10:46:40.954Z,63.22
2022-08-26T10:49:15.390Z,62.67
2022-08-26T10:51:57.595Z,63.21
2022-08-26T10:54:41.623Z,62.96
2022-08-26T10:57:35.347Z,63.65
2022-08-26T11:01:10.136Z,63.29
2022-08-26T11:04:00.181Z,59.91
2022-08-26T11:06:32.411Z,61.48
2022-08-26T11:09:02.356Z,61.48
2022-08-26T11:11:43.150Z,61.82
2022-08-26T11:14:29.240Z,59.65
2022-08-26T11:16:58.667Z,59.77
2022-08-26T11:20:00.345Z,59.98
2022-08-26T11:22:47.346Z,59.30
2022-08-26T11:25:30.841Z,56.67
2022-08-26T11:28:00.973Z,55.35
2022-08-26T11:30:38.725Z,57.54
2022-08-26T11:33:09.316Z,56.06
2022-08-26T11:35:47.803Z,56.94
2022-08-26T11:38:42.526Z,53.59
2022-08-26T11:41:24.668Z,55.16
2022-08-26T11:43:58.910Z,55.43
2022-08-26T11:46:31.918Z,54.59
2022-08-26T11:49:12.705Z,56.50
2022-08-26T11:51:42.559Z,56.52
2022-08-26T11:54:17.477Z,57.51
2022-08-26T11:57:12.497Z,56.04
2022-08-26T11:59:40.981Z,54.59
2022-08-26T12:02:15.583Z,55.70
2022-08-26T12:04:49.986Z,55.93
2022-08-26T12:07:23.863Z,54.77
2022-08-26T12:10:05.936Z,55.56
2022-08-26T12:12:39.684Z,53.53
2022-08-26T12:15:13.075Z,53.92
2022-08-26T12:17:41.115Z,52.72
2022-08-26T12:20:21.557Z,53.99
2022-08-26T12:22:49.444Z,54.78
2022-08-26T12:25:17.495Z,54.46
2022-08-26T12:27:46.209Z,54.74
2022-08-26T12:30:27.035Z,54.13
2022-08-26T12:33:21.904Z,51.26
2022-08-26T12:35:54.774Z,50.68
2022-08-26T12:38:25.508Z,51.69
2022-08-26T12:40:53.461Z,51.85
2022-08-26T12:43:41.090Z,51.28
2022-08-26T12:46:13.863Z,51.04
2022-08-26T12:48:43.696Z,51.15
2022-08-26T12:51:43.505Z,50.30
2022-08-26T12:54:15.156Z,48.68
2022-08-26T12:56:43.040Z,49.31
2022-08-26T12:59:25.533Z,49.60
2022-08-26T13:01:53.586Z,47.98
2022-08-26T13:04:42.381Z,48.78
2022-08-26T13:07:31.292Z,44.33
2022-08-26T13:09:59.913Z,44.86
2022-08-26T13:12:32.303Z,45.47
2022-08-26T13:15:00.976Z,44.93
2022-08-26T13:17:29.438Z,45.54
2022-08-26T13:20:03.290Z,46.11
2022-08-26T13:22:35.365Z,46.46
2022-08-26T13:25:03.183Z,45.40
2022-08-26T13:27:31.693Z,45.39
2022-08-26T13:30:00.304Z,45.14
2022-08-26T13:32:33.964Z,45.25
2022-08-26T13:35:06.802Z,41.45
2022-08-26T13:37:35.655Z,42.58
2022-08-26T13:40:05.952Z,41.65
2022-08-26T13:42:34.396Z,41.91
2022-08-26T13:45:02.526Z,42.27
2022-08-26T13:47:30.474Z,42.14
2022-08-26T13:49:58.378Z,41.00
2022-08-26T13:52:30.252Z,41.20
2022-08-26T13:55:00.699Z,43.03
2022-08-26T13:57:31.317Z,42.72
2022-08-26T14:00:00.463Z,42.53
2022-08-26T14:02:28.780Z,43.33
2022-08-26T14:05:00.837Z,43.03
2022-08-26T14:07:28.642Z,43.38
2022-08-26T14:09:56.453Z,43.82
2022-08-26T14:12:24.188Z,44.00
2022-08-26T14:14:52.298Z,43.58
2022-08-26T14:17:22.443Z,43.88
2022-08-26T14:19:50.925Z,43.73
2022-08-26T14:22:19.919Z,43.09
2022-08-26T14:24:47.744Z,43.42
2022-08-26T14:27:15.802Z,43.07
2022-08-26T14:29:43.757Z,42.83
2022-08-26T14:32:24.037Z,42.69
2022-08-26T14:34:52.179Z,42.31
2022-08-26T14:37:20.146Z,43.19
2022-08-26T14:39:48.244Z,43.27
2022-08-26T14:42:16.736Z,42.98
2022-08-26T14:44:45.754Z,41.84
2022-08-26T14:47:13.607Z,42.16
2022-08-26T14:49:41.423Z,42.47
2022-08-26T14:52:09.403Z,42.53
2022-08-26T14:54:38.490Z,42.55
2022-08-26T14:57:11.752Z,42.43
2022-08-26T14:59:45.477Z,41.59
2022-08-26T15:02:30.877Z,40.95
2022-08-26T15:05:03.186Z,42.24
2022-08-26T15:07:31.264Z,42.59
2022-08-26T15:09:59.015Z,42.18
2022-08-26T15:12:26.882Z,42.57
2022-08-26T15:14:55.013Z,42.79
2022-08-26T15:17:22.955Z,42.77
2022-08-26T15:19:50.756Z,42.63
2022-08-26T15:22:18.732Z,43.14
2022-08-26T15:24:46.827Z,43.66
2022-08-26T15:27:14.668Z,43.90
2022-08-26T15:29:42.743Z,44.19
2022-08-26T15:32:10.756Z,44.34
2022-08-26T15:34:38.969Z,44.47
2022-08-26T15:37:07.636Z,44.87
2022-08-26T15:39:35.784Z,45.30
2022-08-26T15:42:03.703Z,45.30
2022-08-26T15:44:31.921Z,45.83
2022-08-26T15:47:05.063Z,46.31
2022-08-26T15:49:33.029Z,46.99
2022-08-26T15:52:00.973Z,47.31
2022-08-26T15:54:28.837Z,48.09
2022-08-26T15:56:56.694Z,47.93
2022-08-26T15:59:24.799Z,47.93
2022-08-26T16:01:58.080Z,48.26
2022-08-26T16:04:26.206Z,48.53
2022-08-26T16:06:54.133Z,48.30
2022-08-26T16:09:28.362Z,47.63
2022-08-26T16:11:56.927Z,48.06
2022-08-26T16:14:29.423Z,48.18
2022-08-26T16:16:58.614Z,48.28
2022-08-26T16:19:26.467Z,48.74
2022-08-26T16:21:54.434Z,49.24
2022-08-26T16:24:27.144Z,49.18
2022-08-26T16:26:57.910Z,49.49
2022-08-26T16:29:25.730Z,49.70
2022-08-26T16:31:55.739Z,49.88
2022-08-26T16:34:23.685Z,50.23
2022-08-26T16:36:51.959Z,50.78
2022-08-26T16:39:19.769Z,50.72
2022-08-26T16:41:47.573Z,51.04
2022-08-26T16:44:15.393Z,51.52
2022-08-26T16:46:43.319Z,51.97
2022-08-26T16:49:11.106Z,52.35
2022-08-26T16:51:38.986Z,52.89
2022-08-26T16:54:07.724Z,53.24
2022-08-26T16:56:35.560Z,53.40
2022-08-26T16:59:05.392Z,53.59
2022-08-26T17:01:33.381Z,53.99
2022-08-26T17:04:01.361Z,54.30
2022-08-26T17:06:29.160Z,54.63
2022-08-26T17:08:56.959Z,54.97
2022-08-26T17:11:24.812Z,55.19
2022-08-26T17:13:52.700Z,55.03
2022-08-26T17:16:25.876Z,55.21
2022-08-26T17:18:55.365Z,55.50
2022-08-26T17:21:23.201Z,55.65
2022-08-26T17:23:51.405Z,56.71
2022-08-26T17:26:19.316Z,57.31
2022-08-26T17:28:47.280Z,58.20
2022-08-26T17:31:15.248Z,59.05
2022-08-26T17:33:45.851Z,59.17
2022-08-26T17:36:28.154Z,58.65
2022-08-26T17:38:56.573Z,59.72
2022-08-26T17:41:24.437Z,59.23
2022-08-26T17:43:52.310Z,59.44
2022-08-26T17:46:20.168Z,59.84
2022-08-26T17:48:49.405Z,59.68
2022-08-26T17:51:18.178Z,59.36
2022-08-26T17:53:46.166Z,58.97
2022-08-26T17:56:15.138Z,59.06
2022-08-26T17:58:48.019Z,59.40
2022-08-26T18:01:19.825Z,59.65
2022-08-26T18:03:47.733Z,59.64
2022-08-26T18:06:15.797Z,59.49
2022-08-26T18:08:43.797Z,59.64
2022-08-26T18:11:13.775Z,59.75
2022-08-26T18:13:47.136Z,59.79
2022-08-26T18:16:15.722Z,59.52
2022-08-26T18:18:44.193Z,59.31
2022-08-26T18:21:17.039Z,59.19
2022-08-26T18:23:45.795Z,59.03
2022-08-26T18:26:21.879Z,60.24
2022-08-26T18:28:49.696Z,68.16
2022-08-26T18:31:17.565Z,75.78
2022-08-26T18:33:45.637Z,72.73
2022-08-26T18:36:21.411Z,76.19
2022-08-26T18:38:50.449Z,81.76
2022-08-26T18:41:20.311Z,90.24
2022-08-26T18:43:48.466Z,94.50
2022-08-26T18:46:16.333Z,95.33
2022-08-26T18:48:44.287Z,96.53
2022-08-26T18:51:18.401Z,98.37
2022-08-26T18:53:46.342Z,97.57
2022-08-26T18:56:16.669Z,100.00
2022-08-26T18:58:46.403Z,100.00
2022-08-26T19:01:14.597Z,100.00
2022-08-26T19:03:42.573Z,100.00
2022-08-26T19:06:17.266Z,100.00
2022-08-26T19:08:45.260Z,100.00
2022-08-26T19:11:17.754Z,100.00
2022-08-26T19:13:59.794Z,100.00
2022-08-26T19:16:28.073Z,100.00
2022-08-26T19:18:56.077Z,100.00
2022-08-26T19:21:24.126Z,100.00
2022-08-26T19:23:52.122Z,100.00
2022-08-26T19:26:23.157Z,100.00
2022-08-26T19:28:51.130Z,100.00
2022-08-26T19:31:19.026Z,100.00
2022-08-26T19:33:49.552Z,100.00
2022-08-26T19:36:20.977Z,100.00
2022-08-26T19:38:49.151Z,100.00
2022-08-26T19:41:26.594Z,100.00
2022-08-26T19:44:34.947Z,100.00
2022-08-26T19:47:04.660Z,100.00
2022-08-26T19:49:32.927Z,100.00
2022-08-26T19:52:00.811Z,100.00
2022-08-26T19:54:29.403Z,100.00
2022-08-26T19:56:57.302Z,100.00
2022-08-26T19:59:25.753Z,100.00
2022-08-26T20:02:01.178Z,100.00
2022-08-26T20:04:30.920Z,100.00
2022-08-26T20:07:00.526Z,100.00
2022-08-26T20:09:29.894Z,100.00
2022-08-26T20:11:57.965Z,100.00
2022-08-26T20:14:26.874Z,100.00
2022-08-26T20:16:54.941Z,100.00
2022-08-26T20:19:41.266Z,100.00
2022-08-26T20:22:09.347Z,100.00
2022-08-26T20:24:37.397Z,100.00
2022-08-26T20:27:07.947Z,100.00
2022-08-26T20:29:36.403Z,100.00
2022-08-26T20:32:04.915Z,100.00
2022-08-26T20:34:33.254Z,100.00
2022-08-26T20:37:01.108Z,100.00
2022-08-26T20:39:30.763Z,100.00
2022-08-26T20:41:58.806Z,100.00
2022-08-26T20:44:26.706Z,100.00
2022-08-26T20:46:54.485Z,100.00
2022-08-26T20:49:22.322Z,100.00
2022-08-26T20:51:52.620Z,100.00
2022-08-26T20:54:26.163Z,100.00
2022-08-26T20:56:56.781Z,100.00
2022-08-26T20:59:24.552Z,100.00
2022-08-26T21:01:52.544Z,100.00
2022-08-26T21:04:22.216Z,100.00
2022-08-26T21:06:52.680Z,100.00
2022-08-26T21:09:21.631Z,100.00
2022-08-26T21:11:49.716Z,100.00
2022-08-26T21:14:17.551Z,100.00
2022-08-26T21:16:45.668Z,100.00
2022-08-26T21:19:19.075Z,100.00
2022-08-26T21:21:48.225Z,100.00
2022-08-26T21:24:16.230Z,100.00
2022-08-26T21:26:44.106Z,100.00
2022-08-26T21:29:12.034Z,100.00
2022-08-26T21:31:45.421Z,100.00
2022-08-26T21:34:15.062Z,100.00
2022-08-26T21:36:43.053Z,100.00
2022-08-26T21:39:12.197Z,100.00
2022-08-26T21:41:40.702Z,100.00
2022-08-26T21:44:08.691Z,100.00
2022-08-26T21:46:38.414Z,100.00
2022-08-26T21:49:08.528Z,100.00
2022-08-26T21:51:38.044Z,100.00
2022-08-26T21:54:10.704Z,100.00
2022-08-26T21:56:42.121Z,100.00
2022-08-26T21:59:10.033Z,100.00
2022-08-26T22:01:37.981Z,100.00
2022-08-26T22:04:07.469Z,100.00
2022-08-26T22:06:36.593Z,100.00
2022-08-26T22:09:04.440Z,100.00
2022-08-26T22:11:32.969Z,100.00
2022-08-26T22:14:00.814Z,100.00
2022-08-26T22:16:29.829Z,100.00
2022-08-26T22:18:57.754Z,100.00
2022-08-26T22:21:26.364Z,100.00
2022-08-26T22:23:56.109Z,100.00
2022-08-26T22:26:27.341Z,100.00
2022-08-26T22:28:58.526Z,100.00
2022-08-26T22:31:29.040Z,100.00
2022-08-26T22:34:10.664Z,100.00
2022-08-26T22:36:42.945Z,100.00
2022-08-26T22:39:11.176Z,100.00
2022-08-26T22:41:38.976Z,100.00
2022-08-26T22:44:06.975Z,100.00
2022-08-26T22:46:35.988Z,100.00
2022-08-26T22:49:05.784Z,100.00
2022-08-26T22:51:33.593Z,100.00
2022-08-26T22:54:01.864Z,100.00
2022-08-26T22:56:29.680Z,100.00
2022-08-26T22:58:57.475Z,100.00
2022-08-26T23:01:25.328Z,100.00
2022-08-26T23:03:53.110Z,100.00
2022-08-26T23:06:20.932Z,100.00
2022-08-26T23:08:48.835Z,100.00
2022-08-26T23:11:16.643Z,100.00
2022-08-26T23:13:44.501Z,100.00
2022-08-26T23:16:13.046Z,100.00
2022-08-26T23:18:41.548Z,100.00
2022-08-26T23:21:09.583Z,100.00
2022-08-26T23:23:37.764Z,100.00
2022-08-26T23:26:06.473Z,100.00
2022-08-26T23:28:34.665Z,100.00
2022-08-26T23:31:02.522Z,100.00
2022-08-26T23:33:50.271Z,100.00
2022-08-26T23:36:18.398Z,100.00
2022-08-26T23:38:53.185Z,100.00
2022-08-26T23:41:22.971Z,100.00
2022-08-26T23:43:51.186Z,100.00
2022-08-26T23:46:19.734Z,100.00
2022-08-26T23:48:47.904Z,100.00
2022-08-26T23:51:34.287Z,100.00
2022-08-26T23:54:02.133Z,100.00
2022-08-26T23:56:30.255Z,100.00
2022-08-26T23:58:58.052Z,100.00
